Stevens Pass
Stevens Pass Ski Area - Brooks Chair
Latest observation 08/31 21:00 PDT
| Time (PDT) | Temp °F 4800' | RH % 4800' | Pcp1 in 4800' | PcpSum in 4800' | 24Sno in 4800' | SnoHt in 4800' |
|---|---|---|---|---|---|---|
| 08/31 21:00 | 57 | 52 | 0.00 | 0.24 | 86.6 | -7999.0 |
| 08/31 20:00 | 56 | 60 | 0.00 | 0.24 | 102.6 | -7999.0 |
| 08/31 19:00 | 61 | 48 | 0.00 | 0.24 | 105.0 | -7999.0 |
| 08/31 18:00 | 65 | 42 | 0.00 | 0.24 | 116.3 | -7999.0 |
| 08/31 17:00 | 67 | 40 | 0.00 | 0.24 | 119.9 | -7999.0 |
| 08/31 16:00 | 69 | 39 | 0.00 | 0.24 | 119.5 | -7999.0 |
| 08/31 15:00 | 68 | 40 | 0.00 | 0.24 | 118.9 | -7999.0 |
| 08/31 14:00 | 67 | 44 | 0.00 | 0.24 | 118.7 | -7999.0 |
| 08/31 13:00 | 64 | 49 | 0.00 | 0.24 | 113.9 | -7999.0 |
| 08/31 12:00 | 61 | 55 | 0.00 | 0.24 | 109.0 | -7999.0 |
| 08/31 11:00 | 59 | 59 | 0.00 | 0.24 | 103.7 | -7999.0 |
| 08/31 10:00 | 55 | 65 | 0.00 | 0.24 | 100.1 | -7999.0 |
| 08/31 09:00 | 52 | 72 | 0.00 | 0.24 | 95.5 | -7999.0 |
| 08/31 08:00 | 50 | 77 | 0.00 | 0.24 | 87.0 | -7999.0 |
| 08/31 07:00 | 46 | 85 | 0.00 | 0.24 | 94.1 | -7999.0 |
| 08/31 06:00 | 47 | 80 | 0.00 | 0.24 | 93.5 | -7999.0 |
| 08/31 05:00 | 47 | 79 | 0.00 | 0.24 | 107.4 | -7999.0 |
| 08/31 04:00 | 45 | 86 | 0.00 | 0.24 | 250.1 | -7999.0 |
| 08/31 03:00 | 45 | 89 | 0.00 | 0.24 | 206.0 | -7999.0 |
| 08/31 02:00 | 45 | 91 | 0.00 | 0.24 | 197.1 | -7999.0 |
| 08/31 01:00 | 43 | 98 | 0.00 | 0.24 | 187.6 | -7999.0 |
| 08/31 00:00 | 42 | 96 | 0.00 | 0.24 | 155.4 | -7999.0 |
| 08/30 23:00 | 44 | 93 | 0.00 | 0.24 | 128.5 | -7999.0 |
| 08/30 22:00 | 45 | 91 | 0.00 | 0.24 | 88.0 | -7999.0 |
| 08/30 21:00 | 45 | 90 | 0.00 | 0.24 | 89.8 | -7999.0 |
| 08/30 20:00 | 45 | 91 | 0.00 | 0.24 | 90.4 | -7999.0 |
| 08/30 19:00 | 45 | 89 | 0.00 | 0.24 | 87.5 | -7999.0 |
| 08/30 18:00 | 46 | 86 | 0.00 | 0.24 | 88.7 | -7999.0 |
| 08/30 17:00 | 46 | 82 | 0.00 | 0.24 | 88.7 | -7999.0 |
| 08/30 16:00 | 46 | 85 | 0.00 | 0.24 | 90.7 | -7999.0 |
| 08/30 15:00 | 46 | 84 | 0.00 | 0.24 | 92.5 | -7999.0 |
| 08/30 14:00 | 45 | 84 | 0.00 | 0.24 | 93.4 | -7999.0 |
| 08/30 13:00 | 45 | 83 | 0.00 | 0.24 | 91.6 | -7999.0 |
| 08/30 12:00 | 44 | 87 | 0.00 | 0.24 | 91.1 | -7999.0 |
| 08/30 11:00 | 42 | 90 | 0.00 | 0.24 | 92.8 | -7999.0 |
| 08/30 10:00 | 42 | 92 | 0.00 | 0.24 | 95.5 | -7999.0 |
| 08/30 09:00 | 41 | 92 | 0.00 | 0.24 | 98.0 | -7999.0 |
| 08/30 08:00 | 42 | 90 | 0.00 | 0.24 | 99.6 | -7999.0 |
| 08/30 07:00 | 41 | 94 | 0.00 | 0.24 | 144.8 | -7999.0 |
| 08/30 06:00 | 41 | 95 | 0.00 | 0.24 | 143.8 | -7999.0 |
| 08/30 05:00 | 41 | 97 | 0.00 | 0.24 | 142.1 | -7999.0 |
| 08/30 04:00 | 41 | 91 | 0.00 | 0.24 | 114.9 | -7999.0 |
| 08/30 03:00 | 41 | 94 | 0.00 | 0.24 | 141.4 | -7999.0 |
| 08/30 02:00 | 42 | 91 | 0.00 | 0.24 | 126.2 | -7999.0 |
| 08/30 01:00 | 41 | 91 | 0.00 | 0.24 | 152.2 | -7999.0 |
| 08/30 00:00 | 41 | 88 | 0.00 | 0.24 | 149.3 | -7999.0 |
| 08/29 23:00 | 41 | 91 | 0.00 | 0.24 | 149.9 | -7999.0 |
| 08/29 22:00 | 42 | 89 | 0.00 | 0.24 | 145.9 | -7999.0 |
| 08/29 21:00 | 42 | 91 | 0.00 | 0.24 | 146.4 | -7999.0 |
| 08/29 20:00 | 42 | 88 | 0.00 | 0.24 | 152.2 | -7999.0 |
| 08/29 19:00 | 42 | 90 | 0.00 | 0.24 | 155.2 | -7999.0 |
| 08/29 18:00 | 42 | 89 | 0.00 | 0.24 | 157.6 | -7999.0 |
| 08/29 17:00 | 44 | 82 | 0.00 | 0.24 | 119.3 | -7999.0 |
| 08/29 16:00 | 43 | 88 | 0.00 | 0.24 | 142.5 | -7999.0 |
| 08/29 15:00 | 42 | 93 | 0.02 | 0.24 | 155.3 | -7999.0 |
| 08/29 14:00 | 41 | 94 | 0.04 | 0.22 | 153.2 | -7999.0 |
| 08/29 13:00 | 41 | 94 | 0.08 | 0.18 | 156.1 | -7999.0 |
| 08/29 12:00 | 41 | 95 | 0.01 | 0.10 | 150.4 | -7999.0 |
| 08/29 11:00 | 40 | 95 | 0.01 | 0.09 | 137.0 | -7999.0 |
| 08/29 10:00 | 40 | 97 | 0.01 | 0.08 | 114.2 | -7999.0 |
| 08/29 09:00 | 40 | 97 | 0.02 | 0.07 | 123.4 | -7999.0 |
| 08/29 08:00 | 40 | 98 | 0.00 | 0.05 | 133.6 | -7999.0 |
| 08/29 07:00 | 41 | 95 | 0.00 | 0.05 | 124.7 | -7999.0 |
| 08/29 06:00 | 41 | 96 | 0.01 | 0.05 | 129.9 | -7999.0 |
| 08/29 05:00 | 42 | 95 | 0.01 | 0.04 | 131.1 | -7999.0 |
| 08/29 04:00 | 42 | 95 | 0.02 | 0.03 | 141.9 | -7999.0 |
| 08/29 03:00 | 43 | 96 | 0.01 | 0.01 | 124.5 | -7999.0 |
| 08/29 02:00 | 44 | 96 | 0.00 | 0.00 | 124.8 | -7999.0 |
| 08/29 01:00 | 45 | 91 | 0.00 | 0.00 | 133.5 | -7999.0 |
| 08/29 00:00 | 46 | 89 | 0.00 | 0.00 | 133.1 | -7999.0 |
| 08/28 23:00 | 46 | 91 | 0.00 | 0.00 | 140.5 | -7999.0 |
| 08/28 22:00 | 46 | 91 | 0.00 | 0.00 | 139.1 | -7999.0 |
| 08/28 21:00 | 47 | 90 | 0.00 | 0.00 | 136.7 | -7999.0 |
| 08/28 20:00 | 48 | 88 | 0.00 | 0.00 | 127.9 | -7999.0 |
| 08/28 19:00 | 49 | 84 | 0.00 | 0.00 | 131.9 | -7999.0 |
| 08/28 18:00 | 54 | 69 | 0.00 | 0.00 | 139.0 | -7999.0 |
| 08/28 17:00 | 57 | 59 | 0.00 | 0.00 | 141.4 | -7999.0 |
| 08/28 16:00 | 58 | 55 | 0.00 | 0.00 | 138.4 | -7999.0 |
| 08/28 15:00 | 58 | 55 | 0.00 | 0.00 | 136.9 | -7999.0 |
| 08/28 14:00 | 58 | 56 | 0.00 | 0.00 | 134.3 | -7999.0 |
| 08/28 13:00 | 53 | 68 | 0.00 | 0.00 | 129.2 | -7999.0 |
| 08/28 12:00 | 51 | 73 | 0.00 | 0.00 | 127.3 | -7999.0 |
| 08/28 11:00 | 49 | 81 | 0.00 | 0.00 | 122.8 | -7999.0 |
| 08/28 10:00 | 49 | 85 | 0.00 | 0.00 | 113.4 | -7999.0 |
| 08/28 09:00 | 46 | 89 | 0.00 | 0.00 | 106.9 | -7999.0 |
| 08/28 08:00 | 45 | 94 | 0.00 | 0.00 | 121.5 | -7999.0 |
| 08/28 07:00 | 45 | 94 | 0.00 | 0.00 | 139.2 | -7999.0 |
| 08/28 06:00 | 45 | 94 | 0.00 | 0.00 | 139.0 | -7999.0 |
| 08/28 05:00 | 45 | 96 | 0.00 | 0.00 | 116.4 | -7999.0 |
| 08/28 04:00 | 45 | 95 | 0.00 | 0.00 | 112.7 | -7999.0 |
| 08/28 03:00 | 46 | 89 | 0.00 | 0.00 | 135.1 | -7999.0 |
| 08/28 02:00 | 46 | 91 | 0.00 | 0.00 | 133.9 | -7999.0 |
| 08/28 01:00 | 46 | 93 | 0.00 | 0.00 | 136.7 | -7999.0 |
| 08/28 00:00 | 47 | 91 | 0.00 | 0.00 | 127.9 | -7999.0 |
| 08/27 23:00 | 48 | 91 | 0.00 | 0.00 | 122.0 | -7999.0 |
| 08/27 22:00 | 49 | 86 | 0.00 | 0.00 | 123.0 | -7999.0 |
| 08/27 21:00 | 49 | 86 | 0.00 | 0.00 | 123.6 | -7999.0 |
| 08/27 20:00 | 49 | 84 | 0.00 | 0.00 | 125.1 | -7999.0 |
| 08/27 19:00 | 50 | 78 | 0.00 | 0.00 | 129.4 | -7999.0 |
| 08/27 18:00 | 52 | 73 | 0.00 | 0.00 | 132.9 | -7999.0 |
| 08/27 17:00 | 53 | 71 | 0.00 | 0.00 | 138.6 | -7999.0 |
| 08/27 16:00 | 52 | 73 | 0.00 | 0.00 | 137.8 | -7999.0 |
| 08/27 15:00 | 56 | 66 | 0.00 | 0.00 | 138.1 | -7999.0 |
| 08/27 14:00 | 58 | 58 | 0.00 | 0.00 | 144.9 | -7999.0 |
| 08/27 13:00 | 58 | 52 | 0.00 | 0.00 | 142.8 | -7999.0 |
| 08/27 12:00 | 56 | 53 | 0.00 | 0.00 | 137.1 | -7999.0 |
| 08/27 11:00 | 52 | 66 | 0.00 | 0.00 | 131.0 | -7999.0 |
| 08/27 10:00 | 51 | 76 | 0.00 | 0.00 | 128.1 | -7999.0 |
| 08/27 09:00 | 51 | 76 | 0.00 | 0.00 | 125.1 | -7999.0 |
| 08/27 08:00 | 50 | 81 | 0.00 | 0.00 | 115.8 | -7999.0 |
| 08/27 07:00 | 50 | 82 | 0.00 | 0.00 | 112.9 | -7999.0 |
| 08/27 06:00 | 51 | 79 | 0.00 | 0.00 | 121.8 | -7999.0 |
| 08/27 05:00 | 52 | 75 | 0.00 | 0.00 | 122.9 | -7999.0 |
| 08/27 04:00 | 51 | 77 | 0.00 | 0.00 | 128.7 | -7999.0 |
| 08/27 03:00 | 49 | 84 | 0.00 | 0.00 | 118.9 | -7999.0 |
| 08/27 02:00 | 49 | 85 | 0.00 | 0.00 | 134.3 | -7999.0 |
| 08/27 01:00 | 51 | 75 | 0.00 | 0.00 | 129.9 | -7999.0 |
| 08/27 00:00 | 51 | 75 | 0.00 | 0.00 | 128.9 | -7999.0 |
| 08/26 23:00 | 53 | 70 | 0.00 | 0.00 | 132.2 | -7999.0 |
| 08/26 22:00 | 53 | 68 | 0.00 | 0.00 | 136.3 | -7999.0 |
| 08/26 21:00 | 55 | 66 | 0.00 | 0.00 | 134.0 | -7999.0 |
| 08/26 20:00 | 57 | 60 | 0.00 | 0.00 | 137.5 | -7999.0 |
| 08/26 19:00 | 60 | 52 | 0.00 | 0.00 | 142.5 | -7999.0 |
| 08/26 18:00 | 63 | 42 | 0.00 | 0.00 | 149.8 | -7999.0 |
| 08/26 17:00 | 64 | 37 | 0.00 | 0.00 | 152.6 | -7999.0 |
| 08/26 16:00 | 66 | 38 | 0.00 | 0.00 | 154.2 | -7999.0 |
| 08/26 15:00 | 66 | 45 | 0.00 | 0.00 | 157.3 | -7999.0 |
| 08/26 14:00 | 63 | 61 | 0.00 | 0.00 | 158.9 | -7999.0 |
| 08/26 13:00 | 63 | 62 | 0.00 | 0.00 | 160.5 | -7999.0 |
| 08/26 12:00 | 62 | 59 | 0.00 | 0.00 | 162.5 | -7999.0 |
| 08/26 11:00 | 66 | 54 | 0.00 | 0.00 | 178.6 | -7999.0 |
| 08/26 10:00 | 67 | 56 | 0.00 | 0.00 | 179.8 | -7999.0 |
| 08/26 09:00 | 63 | 55 | 0.00 | 0.00 | 165.9 | -7999.0 |
| 08/26 08:00 | 60 | 53 | 0.00 | 0.00 | 144.3 | -7999.0 |
| 08/26 07:00 | 59 | 53 | 0.00 | 0.00 | 126.6 | -7999.0 |
| 08/26 06:00 | 57 | 62 | 0.00 | 0.00 | 127.4 | -7999.0 |
| 08/26 05:00 | 57 | 62 | 0.00 | 0.00 | 129.9 | -7999.0 |
| 08/26 04:00 | 57 | 63 | 0.00 | 0.00 | 127.8 | -7999.0 |
| 08/26 03:00 | 57 | 50 | 0.00 | 0.00 | 128.0 | -7999.0 |
| 08/26 02:00 | 56 | 54 | 0.00 | 0.00 | 128.0 | -7999.0 |
| 08/26 01:00 | 57 | 69 | 0.00 | 0.00 | 130.7 | -7999.0 |
| 08/26 00:00 | 56 | 66 | 0.00 | 0.00 | 134.6 | -7999.0 |
| 08/25 23:00 | 58 | 58 | 0.00 | 0.00 | 137.6 | -7999.0 |
| 08/25 22:00 | 59 | 61 | 0.00 | 0.00 | 140.4 | -7999.0 |
| 08/25 21:00 | 60 | 67 | 0.00 | 0.00 | 144.7 | -7999.0 |
| 08/25 20:00 | 62 | 63 | 0.00 | 0.00 | 151.4 | -7999.0 |
| 08/25 19:00 | 65 | 57 | 0.00 | 0.00 | 155.8 | -7999.0 |
| 08/25 18:00 | 68 | 54 | 0.00 | 0.00 | 163.7 | -7999.0 |
| 08/25 17:00 | 70 | 44 | 0.00 | 0.00 | 168.2 | -7999.0 |
| 08/25 16:00 | 78 | 25 | 0.00 | 0.00 | 185.8 | -7999.0 |
| 08/25 15:00 | 76 | 29 | 0.00 | 0.00 | 180.6 | -7999.0 |
| 08/25 14:00 | 78 | 28 | 0.00 | 0.00 | 187.5 | -7999.0 |
| 08/25 13:00 | 77 | 29 | 0.00 | 0.00 | 192.9 | -7999.0 |
| 08/25 12:00 | 74 | 32 | 0.00 | 0.00 | 189.5 | -7999.0 |
| 08/25 11:00 | 71 | 36 | 0.00 | 0.00 | 177.9 | -7999.0 |
| 08/25 10:00 | 69 | 37 | 0.00 | 0.00 | 172.0 | -7999.0 |
| 08/25 09:00 | 64 | 45 | 0.00 | 0.00 | 155.1 | -7999.0 |
| 08/25 08:00 | 61 | 48 | 0.00 | 0.00 | 134.3 | -7999.0 |
| 08/25 07:00 | 59 | 47 | 0.00 | 0.00 | 115.6 | -7999.0 |
| 08/25 06:00 | 60 | 43 | 0.00 | 0.00 | 116.8 | -7999.0 |
| 08/25 05:00 | 58 | 46 | 0.00 | 0.00 | 111.1 | -7999.0 |
| 08/25 04:00 | 56 | 54 | 0.00 | 0.00 | 109.6 | -7999.0 |
| 08/25 03:00 | 55 | 55 | 0.00 | 0.00 | 112.4 | -7999.0 |
| 08/25 02:00 | 57 | 52 | 0.00 | 0.00 | 115.8 | -7999.0 |
| 08/25 01:00 | 58 | 50 | 0.00 | 0.00 | 117.4 | -7999.0 |
| 08/25 00:00 | 60 | 47 | 0.00 | 0.00 | 121.3 | -7999.0 |
| 08/24 23:00 | 61 | 47 | 0.00 | 0.00 | 120.0 | -7999.0 |
| 08/24 22:00 | 59 | 51 | 0.00 | 0.00 | 121.6 | -7999.0 |

